Time;durP1;ratioP1;P1;durP2;ratioP2;P2;SDS_P1;SDS_P2;PMS_P1;PMS_P2;Temp;Humidity;BMP_temperature;BMP_pressure;BME280_temperature;BME280_humidity;BME280_pressure;Samples;Min_cycle;Max_cycle;Signal;HPM_P1;HPM_P2
2022/10/29 00:00:25;;;;;;;15.07;4.68;;;12.70;99.90;;;;;;4948336;28;20501;-69
2022/10/29 00:02:51;;;;;;;15.88;5.25;;;12.70;99.90;;;;;;4953595;28;20050;-69
2022/10/29 00:05:16;;;;;;;15.50;5.07;;;12.70;99.90;;;;;;4952559;29;20516;-69
2022/10/29 00:07:42;;;;;;;18.92;6.05;;;12.70;99.90;;;;;;4949177;28;20090;-69
2022/10/29 00:10:08;;;;;;;24.85;6.13;;;12.70;99.90;;;;;;4953226;28;20098;-70
2022/10/29 00:12:34;;;;;;;24.65;5.32;;;12.80;99.90;;;;;;4955515;29;20046;-69
2022/10/29 00:14:59;;;;;;;14.95;4.20;;;12.70;99.90;;;;;;4942832;28;20524;-70
2022/10/29 00:17:25;;;;;;;23.20;4.00;;;12.60;99.90;;;;;;4956670;28;20038;-70
2022/10/29 00:19:50;;;;;;;6.85;3.30;;;12.40;99.90;;;;;;4957691;28;20075;-69
2022/10/29 00:22:16;;;;;;;4.90;2.75;;;12.20;99.90;;;;;;4947712;29;20052;-69
2022/10/29 00:24:41;;;;;;;3.97;2.78;;;12.10;99.90;;;;;;4939214;28;20517;-69
2022/10/29 00:27:07;;;;;;;7.80;4.05;;;12.00;99.90;;;;;;4985155;23;20067;-67
2022/10/29 00:29:33;;;;;;;16.45;5.53;;;12.10;99.90;;;;;;4936490;29;20375;-67
2022/10/29 00:31:58;;;;;;;17.45;6.20;;;12.20;99.90;;;;;;4903647;29;20138;-68
2022/10/29 00:34:24;;;;;;;84.05;6.47;;;12.20;99.90;;;;;;4924402;29;20409;-67
2022/10/29 00:36:49;;;;;;;67.60;5.20;;;12.20;99.90;;;;;;4935606;29;20039;-68
2022/10/29 00:39:15;;;;;;;37.55;4.78;;;12.00;99.90;;;;;;4936430;29;20039;-68
2022/10/29 00:41:41;;;;;;;10.32;4.28;;;11.90;99.90;;;;;;4909296;29;20437;-67
2022/10/29 00:44:19;;;;;;;6.85;3.78;;;11.80;99.90;;;;;;4932945;29;20039;-68
2022/10/29 00:47:12;;;;;;;12.02;5.05;;;11.70;99.90;;;;;;4935385;29;20046;-67
2022/10/29 00:49:39;;;;;;;7.28;4.60;;;11.70;99.90;;;;;;4931878;29;20478;-68
2022/10/29 00:52:06;;;;;;;46.88;4.95;;;11.60;99.90;;;;;;4927087;29;20391;-67
2022/10/29 00:54:36;;;;;;;39.00;3.97;;;11.50;99.90;;;;;;4935719;29;20065;-66
2022/10/29 00:57:13;;;;;;;125.85;6.60;;;11.30;99.90;;;;;;4932361;29;20048;-66
2022/10/29 00:59:40;;;;;;;64.47;4.55;;;11.10;99.90;;;;;;4931505;28;20040;-67
2022/10/29 01:02:06;;;;;;;60.58;4.97;;;10.90;99.90;;;;;;4917352;29;20432;-68
2022/10/29 01:04:32;;;;;;;7.22;4.32;;;10.90;99.90;;;;;;4932488;29;20662;-68
2022/10/29 01:06:58;;;;;;;8.60;5.05;;;11.00;99.90;;;;;;4923416;29;20044;-66
2022/10/29 01:09:24;;;;;;;14.52;7.05;;;11.10;99.90;;;;;;4934855;29;20040;-68
2022/10/29 01:12:19;;;;;;;527.05;17.55;;;11.30;99.90;;;;;;4935152;29;20177;-67
2022/10/29 01:15:02;;;;;;;186.15;10.30;;;11.40;99.90;;;;;;4890964;29;20123;-67
2022/10/29 01:17:40;;;;;;;33.88;6.03;;;11.30;99.90;;;;;;4930570;29;20044;-68
2022/10/29 01:20:35;;;;;;;8.10;4.50;;;11.30;99.90;;;;;;4917834;29;20394;-67
2022/10/29 01:23:40;;;;;;;21.02;5.22;;;11.30;99.90;;;;;;4847587;29;20053;-67
2022/10/29 01:26:44;;;;;;;7.47;4.60;;;11.10;99.90;;;;;;4916641;29;20047;-68
2022/10/29 01:29:19;;;;;;;46.33;6.22;;;11.00;99.90;;;;;;4918084;29;20040;-68
2022/10/29 01:31:50;;;;;;;10.80;4.30;;;11.00;99.90;;;;;;4908785;29;20123;-66
2022/10/29 01:34:39;;;;;;;56.38;4.55;;;11.00;99.90;;;;;;4927259;29;20495;-67
2022/10/29 01:37:18;;;;;;;10.00;3.28;;;10.90;99.90;;;;;;4917189;29;20044;-67
2022/10/29 01:39:56;;;;;;;65.95;4.50;;;10.80;99.90;;;;;;4913486;29;20048;-67
2022/10/29 01:42:47;;;;;;;164.63;6.40;;;10.70;99.90;;;;;;4927304;29;20501;-67
2022/10/29 01:45:25;;;;;;;15.70;4.45;;;10.60;99.90;;;;;;4915952;29;20182;-66
2022/10/29 01:48:10;;;;;;;310.77;8.52;;;10.60;99.90;;;;;;4913985;29;20036;-66
2022/10/29 01:50:39;;;;;;;23.67;3.33;;;10.50;99.90;;;;;;4934338;29;20047;-68
2022/10/29 01:53:05;;;;;;;9.88;2.75;;;10.30;99.90;;;;;;4934178;29;20047;-67
2022/10/29 01:55:35;;;;;;;8.02;2.95;;;10.20;99.90;;;;;;4924134;29;20058;-68
2022/10/29 01:58:03;;;;;;;18.08;4.50;;;10.30;99.90;;;;;;4929917;29;20138;-67
2022/10/29 02:01:21;;;;;;;7.32;2.85;;;10.40;99.90;;;;;;4918506;29;20098;-67
2022/10/29 02:03:56;;;;;;;3.83;2.40;;;10.50;99.90;;;;;;4869956;29;20050;-67
2022/10/29 02:06:43;;;;;;;1.65;1.52;;;10.50;99.90;;;;;;4906278;29;20062;-66
2022/10/29 02:09:21;;;;;;;13.65;2.78;;;10.50;99.90;;;;;;4920314;29;20044;-68
2022/10/29 02:12:05;;;;;;;60.78;3.63;;;10.60;99.90;;;;;;4929943;29;20040;-68
2022/10/29 02:14:47;;;;;;;62.10;3.40;;;10.60;99.90;;;;;;4932039;29;20075;-67
2022/10/29 02:17:13;;;;;;;39.70;3.55;;;10.60;99.90;;;;;;4930375;29;20414;-67
2022/10/29 02:19:39;;;;;;;164.68;5.82;;;10.50;99.90;;;;;;4938450;29;20043;-68
2022/10/29 02:22:04;;;;;;;175.05;6.65;;;10.50;99.90;;;;;;4927235;29;20040;-67
2022/10/29 02:24:30;;;;;;;183.05;6.55;;;10.50;99.90;;;;;;4936062;29;20379;-67
2022/10/29 02:26:56;;;;;;;195.07;6.38;;;10.60;99.90;;;;;;4920401;29;20047;-67
2022/10/29 02:29:21;;;;;;;101.55;5.15;;;10.60;99.90;;;;;;4910234;29;20406;-68
2022/10/29 02:31:47;;;;;;;391.02;14.05;;;10.50;99.90;;;;;;4936984;29;20046;-65
2022/10/29 02:34:12;;;;;;;239.55;10.27;;;10.60;99.90;;;;;;4938090;29;20050;-66
2022/10/29 02:36:38;;;;;;;164.85;7.70;;;10.70;99.90;;;;;;4921056;29;20047;-67
2022/10/29 02:39:04;;;;;;;346.35;10.55;;;10.60;99.90;;;;;;4927710;29;20414;-67
2022/10/29 02:41:29;;;;;;;184.43;6.47;;;10.60;99.90;;;;;;4919842;29;20122;-67
2022/10/29 02:43:55;;;;;;;144.95;5.60;;;10.30;99.90;;;;;;4937215;29;20191;-67
2022/10/29 02:46:23;;;;;;;201.18;6.85;;;10.10;99.90;;;;;;4917307;29;20043;-66
2022/10/29 02:48:48;;;;;;;88.05;5.13;;;10.10;99.90;;;;;;4917369;29;20119;-66
2022/10/29 02:51:15;;;;;;;57.05;3.88;;;10.10;99.90;;;;;;4937360;29;20050;-65
2022/10/29 02:53:41;;;;;;;50.80;3.30;;;10.10;99.90;;;;;;4934417;29;20750;-66
2022/10/29 02:56:07;;;;;;;129.45;6.40;;;10.10;99.90;;;;;;4915882;29;20118;-66
2022/10/29 02:58:33;;;;;;;119.72;6.13;;;10.20;99.90;;;;;;4936868;29;20494;-66
2022/10/29 03:00:59;;;;;;;120.82;6.70;;;10.20;99.90;;;;;;4936870;29;20044;-65
2022/10/29 03:03:25;;;;;;;88.22;5.35;;;10.20;99.90;;;;;;4922692;29;20043;-66
2022/10/29 03:05:50;;;;;;;143.45;6.40;;;10.10;99.90;;;;;;4916625;29;20035;-66
2022/10/29 03:08:16;;;;;;;133.98;6.63;;;10.00;99.90;;;;;;4920331;29;20047;-65
2022/10/29 03:10:42;;;;;;;41.15;5.15;;;10.10;99.90;;;;;;4906313;29;20523;-66
2022/10/29 03:13:08;;;;;;;114.88;6.18;;;10.10;99.90;;;;;;4934241;29;20134;-68
2022/10/29 03:15:33;;;;;;;128.32;6.68;;;10.20;99.90;;;;;;4935644;29;20075;-65
2022/10/29 03:17:59;;;;;;;133.07;7.07;;;10.10;99.90;;;;;;4923430;29;20131;-66
2022/10/29 03:20:25;;;;;;;89.25;6.03;;;10.20;99.90;;;;;;4917634;29;20088;-65
2022/10/29 03:22:50;;;;;;;80.40;8.43;;;10.20;99.90;;;;;;4916034;29;20486;-66
2022/10/29 03:25:16;;;;;;;63.65;7.88;;;10.30;99.90;;;;;;4936896;29;20039;-65
2022/10/29 03:27:43;;;;;;;90.35;9.40;;;10.40;99.90;;;;;;4912552;29;20054;-69
2022/10/29 03:30:13;;;;;;;67.63;8.90;;;10.50;99.90;;;;;;4942290;28;20058;-65
2022/10/29 03:32:40;;;;;;;53.85;8.48;;;10.70;99.90;;;;;;4935959;29;20047;-65
2022/10/29 03:35:08;;;;;;;48.45;7.93;;;10.70;99.90;;;;;;4931960;29;20035;-66
2022/10/29 03:37:33;;;;;;;29.30;7.63;;;10.80;99.90;;;;;;4914037;29;20550;-65
2022/10/29 03:39:59;;;;;;;41.25;10.05;;;10.80;99.90;;;;;;4935969;29;20039;-66
2022/10/29 03:42:25;;;;;;;157.50;9.50;;;10.80;99.90;;;;;;4934296;29;20119;-65
2022/10/29 03:44:50;;;;;;;175.73;9.00;;;10.80;99.90;;;;;;4919153;29;20123;-67
2022/10/29 03:47:16;;;;;;;13.57;5.38;;;10.80;99.90;;;;;;4929494;29;20539;-65
2022/10/29 03:49:41;;;;;;;62.70;7.80;;;10.70;99.90;;;;;;4908432;29;20410;-65
2022/10/29 03:52:07;;;;;;;44.65;6.65;;;10.80;99.90;;;;;;4927454;29;20131;-69
2022/10/29 03:54:33;;;;;;;78.25;7.82;;;10.80;99.90;;;;;;4925901;29;20035;-65
2022/10/29 03:56:58;;;;;;;145.23;10.48;;;10.90;99.90;;;;;;4935459;29;20059;-65
2022/10/29 03:59:24;;;;;;;41.95;7.88;;;10.90;99.90;;;;;;4919174;29;20036;-66
2022/10/29 04:01:49;;;;;;;71.88;9.07;;;10.90;99.90;;;;;;4922544;29;20040;-66
2022/10/29 04:04:15;;;;;;;25.10;8.63;;;11.00;99.90;;;;;;4912145;29;20061;-67
2022/10/29 04:06:41;;;;;;;134.38;11.50;;;11.00;99.90;;;;;;4918984;29;20046;-65
2022/10/29 04:09:06;;;;;;;293.40;15.10;;;11.10;99.90;;;;;;4929370;29;20054;-65
2022/10/29 04:11:32;;;;;;;181.57;10.23;;;11.10;99.90;;;;;;4922676;29;20053;-65
2022/10/29 04:13:57;;;;;;;164.65;9.77;;;10.90;99.90;;;;;;4935382;29;20043;-66
2022/10/29 04:16:23;;;;;;;130.60;9.35;;;10.70;99.90;;;;;;4931459;29;20128;-65
2022/10/29 04:18:49;;;;;;;128.82;8.15;;;10.70;99.90;;;;;;4923507;29;20036;-66
2022/10/29 04:21:15;;;;;;;222.10;10.00;;;10.60;99.90;;;;;;4935149;29;20048;-66
2022/10/29 04:23:41;;;;;;;325.52;12.45;;;10.50;99.90;;;;;;4935424;29;20050;-66
2022/10/29 04:26:06;;;;;;;94.50;7.28;;;10.40;99.90;;;;;;4925109;29;20047;-66
2022/10/29 04:28:32;;;;;;;74.53;6.80;;;10.30;99.90;;;;;;4918382;29;20050;-67
2022/10/29 04:31:05;;;;;;;259.30;10.85;;;10.30;99.90;;;;;;4917867;29;20643;-65
2022/10/29 04:33:31;;;;;;;97.47;7.20;;;10.40;99.90;;;;;;4910037;29;20078;-65
2022/10/29 04:35:56;;;;;;;133.35;8.80;;;10.40;99.90;;;;;;4914162;29;20063;-66
2022/10/29 04:38:22;;;;;;;114.35;8.63;;;10.50;99.90;;;;;;4917859;29;20082;-67
2022/10/29 04:40:48;;;;;;;38.33;8.13;;;10.50;99.90;;;;;;4910173;29;20127;-66
2022/10/29 04:43:13;;;;;;;159.75;10.85;;;10.60;99.90;;;;;;4922014;29;20107;-66
2022/10/29 04:45:39;;;;;;;264.38;11.48;;;10.70;99.90;;;;;;4930931;29;20043;-66
2022/10/29 04:48:06;;;;;;;134.45;8.43;;;10.60;99.90;;;;;;4917776;29;20463;-65
2022/10/29 04:50:33;;;;;;;192.25;9.40;;;10.60;99.90;;;;;;4922875;29;20048;-65
2022/10/29 04:52:59;;;;;;;158.77;10.13;;;10.50;99.90;;;;;;4910059;29;20103;-67
2022/10/29 04:55:26;;;;;;;144.70;9.30;;;10.50;99.90;;;;;;4935035;29;20048;-66
2022/10/29 04:57:52;;;;;;;128.02;8.65;;;10.50;99.90;;;;;;4920993;29;20158;-69
2022/10/29 05:00:18;;;;;;;158.02;9.27;;;10.40;99.90;;;;;;4914990;29;20036;-65
2022/10/29 05:02:49;;;;;;;87.00;7.70;;;10.50;99.90;;;;;;4893288;29;20055;-65
2022/10/29 05:05:16;;;;;;;174.55;10.07;;;10.50;99.90;;;;;;4924515;29;20046;-66
2022/10/29 05:07:41;;;;;;;116.40;10.15;;;10.60;99.90;;;;;;4911571;29;20052;-66
2022/10/29 05:10:07;;;;;;;107.05;10.32;;;10.70;99.90;;;;;;4925784;29;20048;-68
2022/10/29 05:12:33;;;;;;;114.07;11.55;;;10.80;99.90;;;;;;4916913;29;20070;-66
2022/10/29 05:14:58;;;;;;;164.75;12.27;;;10.80;99.90;;;;;;4925861;29;20043;-65
2022/10/29 05:17:24;;;;;;;76.47;11.43;;;10.90;99.90;;;;;;4910453;29;20049;-66
2022/10/29 05:19:50;;;;;;;135.20;13.27;;;10.90;99.90;;;;;;4934869;29;20048;-66
2022/10/29 05:22:15;;;;;;;204.43;14.68;;;11.00;99.90;;;;;;4932323;29;20399;-67
2022/10/29 05:24:41;;;;;;;314.13;19.65;;;11.20;99.90;;;;;;4921839;29;20040;-65
2022/10/29 05:27:07;;;;;;;283.33;18.70;;;11.30;99.90;;;;;;4943794;28;20043;-66
2022/10/29 05:29:32;;;;;;;208.80;17.58;;;11.40;99.90;;;;;;4916217;29;20050;-66
2022/10/29 05:31:58;;;;;;;169.88;16.98;;;11.50;99.90;;;;;;4927354;29;20044;-64
2022/10/29 05:34:24;;;;;;;163.05;16.67;;;11.50;99.90;;;;;;4927030;29;20043;-68
2022/10/29 05:36:49;;;;;;;350.17;18.83;;;11.60;99.90;;;;;;4916561;29;20047;-64
2022/10/29 05:39:15;;;;;;;182.68;15.48;;;11.50;99.90;;;;;;4930526;29;20050;-64
2022/10/29 05:41:40;;;;;;;161.45;14.20;;;11.50;99.90;;;;;;4922063;29;20475;-64
2022/10/29 05:44:06;;;;;;;83.25;12.80;;;11.40;99.90;;;;;;4930801;29;20196;-64
2022/10/29 05:46:32;;;;;;;113.28;13.73;;;11.40;99.90;;;;;;4933233;29;20043;-64
2022/10/29 05:48:57;;;;;;;23.95;10.98;;;11.50;99.90;;;;;;4921789;29;20032;-64
2022/10/29 05:51:23;;;;;;;78.88;12.88;;;11.40;99.90;;;;;;4918441;29;20036;-65
2022/10/29 05:53:49;;;;;;;255.63;20.35;;;11.50;99.90;;;;;;4930188;29;20487;-64
2022/10/29 05:56:15;;;;;;;108.65;16.63;;;11.60;99.90;;;;;;4934068;29;20114;-64
2022/10/29 05:58:40;;;;;;;118.07;19.83;;;11.60;99.90;;;;;;4913570;29;20043;-65
2022/10/29 06:01:10;;;;;;;112.00;20.77;;;11.70;99.90;;;;;;4931508;29;20075;-64
2022/10/29 06:03:37;;;;;;;128.85;21.25;;;11.80;99.90;;;;;;4931822;29;20118;-65
2022/10/29 06:06:03;;;;;;;83.13;19.77;;;11.90;99.90;;;;;;4928725;29;20040;-66
2022/10/29 06:08:28;;;;;;;133.30;21.23;;;11.90;99.90;;;;;;4931824;29;20111;-64
2022/10/29 06:10:54;;;;;;;64.97;18.38;;;11.90;99.90;;;;;;4929855;29;20044;-64
2022/10/29 06:13:21;;;;;;;57.97;17.63;;;11.90;99.90;;;;;;4926275;29;20039;-64
2022/10/29 06:15:48;;;;;;;34.63;16.83;;;11.90;99.90;;;;;;4906305;29;20126;-65
2022/10/29 06:18:15;;;;;;;55.90;20.17;;;11.90;99.90;;;;;;4922810;29;20466;-65
2022/10/29 06:20:42;;;;;;;77.13;22.55;;;11.90;99.90;;;;;;4917800;29;20058;-67
2022/10/29 06:23:08;;;;;;;48.35;20.83;;;11.90;99.90;;;;;;4939462;28;20050;-66
2022/10/29 06:25:34;;;;;;;56.15;20.10;;;12.00;99.90;;;;;;4909020;29;20050;-66
2022/10/29 06:28:05;;;;;;;49.20;21.15;;;12.10;99.90;;;;;;4916900;29;20043;-66
2022/10/29 06:30:33;;;;;;;93.93;20.30;;;12.10;99.90;;;;;;4892913;29;20044;-67
2022/10/29 06:32:59;;;;;;;176.93;24.00;;;12.10;99.90;;;;;;4906448;29;20123;-66
2022/10/29 06:35:25;;;;;;;82.53;20.25;;;12.10;99.90;;;;;;4912976;29;20098;-66
2022/10/29 06:37:51;;;;;;;114.60;21.08;;;12.10;99.90;;;;;;4921044;29;20039;-66
2022/10/29 06:40:17;;;;;;;68.70;18.92;;;12.10;99.90;;;;;;4919415;29;20042;-67
2022/10/29 06:42:42;;;;;;;77.68;20.20;;;12.10;99.90;;;;;;4919700;29;20035;-66
2022/10/29 06:45:09;;;;;;;59.92;20.23;;;12.10;99.90;;;;;;4932755;29;20063;-66
2022/10/29 06:47:39;;;;;;;44.28;18.48;;;12.20;99.90;;;;;;4927542;29;20571;-67
2022/10/29 06:50:05;;;;;;;46.85;19.67;;;12.20;99.90;;;;;;4928554;29;20495;-67
2022/10/29 06:52:30;;;;;;;43.83;19.13;;;12.20;99.90;;;;;;4936686;29;20107;-67
2022/10/29 06:54:56;;;;;;;37.60;18.20;;;12.20;99.90;;;;;;4924165;29;20031;-66
2022/10/29 06:57:23;;;;;;;42.88;20.02;;;12.30;99.90;;;;;;4931947;29;20047;-67
2022/10/29 06:59:49;;;;;;;38.08;18.85;;;12.30;99.90;;;;;;4919851;29;20044;-66
2022/10/29 07:02:17;;;;;;;67.28;20.05;;;12.30;99.90;;;;;;4936414;29;20035;-66
2022/10/29 07:04:43;;;;;;;33.47;17.48;;;12.30;99.90;;;;;;4932770;29;20039;-67
2022/10/29 07:07:08;;;;;;;37.03;18.13;;;12.30;99.90;;;;;;4936269;29;20122;-67
2022/10/29 07:09:34;;;;;;;37.22;18.08;;;12.30;99.90;;;;;;4919389;29;20040;-67
2022/10/29 07:12:00;;;;;;;36.13;17.65;;;12.30;99.90;;;;;;4930042;29;20047;-67
2022/10/29 07:14:25;;;;;;;35.13;18.00;;;12.30;99.90;;;;;;4928446;29;20032;-66
2022/10/29 07:16:52;;;;;;;40.03;17.65;;;12.40;99.90;;;;;;4931083;29;20095;-66
2022/10/29 07:19:18;;;;;;;31.92;17.15;;;12.40;99.90;;;;;;4936819;29;20486;-66
2022/10/29 07:21:43;;;;;;;29.83;16.17;;;12.40;99.90;;;;;;4936375;29;20054;-66
2022/10/29 07:24:09;;;;;;;42.65;17.35;;;12.40;99.90;;;;;;4927064;29;20043;-68
2022/10/29 07:26:37;;;;;;;32.85;17.30;;;12.50;99.90;;;;;;4911382;29;20058;-66
2022/10/29 07:29:03;;;;;;;36.65;18.25;;;12.50;99.90;;;;;;4926695;29;20039;-66
2022/10/29 07:31:30;;;;;;;38.88;19.42;;;12.50;99.90;;;;;;4933372;29;20087;-66
2022/10/29 07:33:56;;;;;;;41.03;18.73;;;12.60;99.90;;;;;;4936251;29;20043;-66
2022/10/29 07:36:22;;;;;;;32.75;17.25;;;12.60;99.90;;;;;;4916895;29;20114;-66
2022/10/29 07:38:48;;;;;;;42.00;19.67;;;12.60;99.90;;;;;;4925055;29;20392;-66
2022/10/29 07:41:13;;;;;;;44.65;21.45;;;12.60;99.90;;;;;;4927364;29;20042;-66
2022/10/29 07:43:39;;;;;;;39.80;20.77;;;12.70;99.90;;;;;;4931867;29;20044;-66
2022/10/29 07:46:05;;;;;;;49.30;22.38;;;12.70;99.90;;;;;;4928343;29;20047;-66
2022/10/29 07:48:31;;;;;;;54.35;22.40;;;12.80;99.90;;;;;;4934294;29;20052;-66
2022/10/29 07:50:58;;;;;;;51.55;23.40;;;12.90;99.90;;;;;;4923919;29;20127;-66
2022/10/29 07:53:24;;;;;;;50.65;24.05;;;13.00;99.90;;;;;;4920801;29;20127;-66
2022/10/29 07:55:55;;;;;;;53.90;25.23;;;13.10;99.90;;;;;;4918425;29;20130;-66
2022/10/29 07:58:21;;;;;;;57.87;24.50;;;13.10;99.90;;;;;;4932987;29;20494;-66
2022/10/29 08:00:47;;;;;;;56.65;25.38;;;13.20;99.90;;;;;;4934428;29;20036;-66
2022/10/29 08:03:12;;;;;;;57.17;25.80;;;13.30;99.90;;;;;;4915395;29;20043;-66
2022/10/29 08:05:39;;;;;;;59.72;25.00;;;13.40;99.90;;;;;;4916903;29;20494;-66
2022/10/29 08:08:06;;;;;;;58.30;24.63;;;13.60;99.90;;;;;;4933474;29;20490;-66
2022/10/29 08:10:33;;;;;;;53.55;23.83;;;13.60;99.90;;;;;;4933443;29;20134;-68
2022/10/29 08:13:00;;;;;;;57.85;24.70;;;13.70;99.90;;;;;;4934296;29;20059;-69
2022/10/29 08:15:28;;;;;;;54.90;24.02;;;13.80;99.90;;;;;;4901594;29;20047;-68
2022/10/29 08:17:54;;;;;;;51.55;22.98;;;13.80;99.90;;;;;;4919119;29;20525;-68
2022/10/29 08:20:21;;;;;;;53.38;22.40;;;14.00;99.90;;;;;;4899182;29;20071;-68
2022/10/29 08:22:47;;;;;;;56.17;22.55;;;14.10;99.90;;;;;;4914834;29;20055;-66
2022/10/29 08:25:13;;;;;;;51.42;21.48;;;14.10;99.90;;;;;;4935755;29;20044;-68
2022/10/29 08:27:39;;;;;;;47.80;20.45;;;14.10;99.90;;;;;;4921947;29;20040;-68
2022/10/29 08:30:07;;;;;;;51.38;20.20;;;14.20;99.90;;;;;;4926989;29;20086;-67
2022/10/29 08:32:32;;;;;;;49.40;20.00;;;14.20;99.90;;;;;;4935126;29;20134;-68
2022/10/29 08:34:58;;;;;;;50.05;19.70;;;14.30;99.90;;;;;;4913860;29;20514;-68
2022/10/29 08:37:23;;;;;;;41.85;19.77;;;14.30;99.90;;;;;;4924349;29;20124;-68
2022/10/29 08:39:49;;;;;;;49.03;20.20;;;14.40;99.90;;;;;;4916236;29;20483;-68
2022/10/29 08:42:38;;;;;;;43.67;20.05;;;14.50;99.90;;;;;;4918084;29;20047;-68
2022/10/29 08:45:15;;;;;;;51.53;20.00;;;14.50;99.90;;;;;;4918880;29;20040;-68
2022/10/29 08:48:05;;;;;;;44.67;19.63;;;14.60;99.90;;;;;;4921901;29;20443;-69
2022/10/29 08:50:39;;;;;;;46.40;19.63;;;14.70;99.90;;;;;;4924443;29;21142;-69
2022/10/29 08:53:16;;;;;;;48.78;20.20;;;14.70;99.90;;;;;;4922494;29;20086;-67
2022/10/29 08:55:43;;;;;;;41.60;20.30;;;14.80;99.90;;;;;;4920955;29;20039;-66
2022/10/29 08:58:49;;;;;;;44.05;20.02;;;14.80;99.90;;;;;;4931221;29;20052;-66
2022/10/29 09:01:17;;;;;;;47.58;20.80;;;14.90;99.90;;;;;;4921365;29;20082;-66
2022/10/29 09:03:43;;;;;;;49.45;21.38;;;15.00;99.90;;;;;;4929968;29;20040;-66
2022/10/29 09:06:36;;;;;;;47.28;21.73;;;15.10;99.90;;;;;;4923991;29;20059;-66
2022/10/29 09:09:24;;;;;;;42.42;20.75;;;15.30;99.90;;;;;;4920733;29;20080;-66
2022/10/29 09:12:40;;;;;;;51.13;22.45;;;15.30;99.90;;;;;;4930142;29;20573;-66
2022/10/29 09:15:36;;;;;;;47.88;20.65;;;15.40;99.90;;;;;;4903443;29;20501;-67
2022/10/29 09:18:20;;;;;;;38.60;21.85;;;15.50;99.90;;;;;;4934719;29;20154;-66
2022/10/29 09:20:54;;;;;;;51.80;24.35;;;15.70;99.90;;;;;;4929869;29;20044;-67
2022/10/29 09:23:40;;;;;;;46.10;23.40;;;15.80;99.90;;;;;;4926653;29;20071;-67
2022/10/29 09:26:23;;;;;;;49.33;23.63;;;16.00;99.90;;;;;;4920439;29;20047;-67
2022/10/29 09:28:58;;;;;;;48.15;22.65;;;16.10;99.90;;;;;;4929765;29;20042;-67
2022/10/29 09:31:35;;;;;;;40.22;21.30;;;16.30;99.90;;;;;;4933350;29;20048;-67
2022/10/29 09:34:08;;;;;;;37.42;21.25;;;16.40;99.90;;;;;;4932572;29;20094;-68
2022/10/29 09:36:34;;;;;;;39.75;20.35;;;16.40;99.90;;;;;;4924394;29;20044;-68
2022/10/29 09:39:04;;;;;;;41.45;20.75;;;16.50;99.90;;;;;;4933646;29;20414;-66
2022/10/29 09:41:32;;;;;;;37.15;20.67;;;16.50;99.90;;;;;;4930247;29;20419;-67
2022/10/29 09:44:25;;;;;;;36.90;19.67;;;16.60;99.90;;;;;;4932197;29;20031;-66
2022/10/29 09:47:24;;;;;;;31.92;19.00;;;16.70;99.90;;;;;;4930797;29;20094;-67
2022/10/29 09:50:02;;;;;;;33.75;19.75;;;16.80;99.90;;;;;;4933186;29;20071;-67
2022/10/29 09:52:38;;;;;;;36.45;19.27;;;16.90;99.90;;;;;;4927614;29;20110;-67
2022/10/29 09:55:06;;;;;;;32.78;18.38;;;17.00;99.90;;;;;;4936369;29;20133;-67
2022/10/29 09:57:34;;;;;;;32.45;18.60;;;17.10;99.90;;;;;;4935625;28;20046;-67
2022/10/29 10:00:04;;;;;;;37.17;18.45;;;17.20;99.90;;;;;;4929268;29;20182;-67
2022/10/29 10:02:37;;;;;;;37.13;19.50;;;17.20;99.90;;;;;;4930660;29;20047;-66
2022/10/29 10:05:11;;;;;;;31.35;18.45;;;17.30;99.90;;;;;;4926972;29;20502;-67
2022/10/29 10:07:37;;;;;;;33.92;19.58;;;17.30;99.90;;;;;;4930280;29;20164;-67
2022/10/29 10:10:19;;;;;;;33.60;19.17;;;17.40;99.90;;;;;;4932104;29;20031;-67
2022/10/29 10:12:46;;;;;;;;;;;17.50;99.90;;;;;;4928457;29;20131;-67
2022/10/29 10:15:50;;;;;;;30.60;19.15;;;17.50;99.90;;;;;;4928814;29;19919;-67
2022/10/29 10:18:36;;;;;;;36.75;19.40;;;17.60;99.90;;;;;;4868107;29;20138;-67
2022/10/29 10:21:22;;;;;;;41.88;20.33;;;17.80;99.90;;;;;;4927985;29;20052;-67
2022/10/29 10:23:51;;;;;;;39.42;19.88;;;17.90;99.90;;;;;;4930089;29;20512;-67
2022/10/29 10:26:35;;;;;;;31.15;19.20;;;17.90;99.90;;;;;;4923105;29;20380;-67
2022/10/29 10:29:24;;;;;;;38.25;19.08;;;18.10;99.90;;;;;;4923760;29;20071;-67
2022/10/29 10:32:13;;;;;;;32.05;18.55;;;18.10;99.90;;;;;;4927110;29;20059;-67
2022/10/29 10:34:38;;;;;;;36.33;19.08;;;18.10;99.90;;;;;;4922812;29;20048;-67
2022/10/29 10:37:17;;;;;;;35.53;20.05;;;18.10;99.90;;;;;;4934095;29;20175;-68
2022/10/29 10:39:55;;;;;;;34.97;20.08;;;18.10;99.90;;;;;;4918322;29;20057;-67
2022/10/29 10:42:24;;;;;;;33.88;19.63;;;18.20;99.90;;;;;;4900229;29;20056;-68
2022/10/29 10:44:55;;;;;;;36.47;20.88;;;18.10;99.90;;;;;;4928866;29;20508;-68
2022/10/29 10:47:24;;;;;;;34.25;20.35;;;18.10;99.90;;;;;;4906944;29;20058;-68
2022/10/29 10:49:49;;;;;;;36.63;20.55;;;18.20;99.90;;;;;;4928696;29;20507;-68
2022/10/29 10:52:24;;;;;;;56.60;21.38;;;18.30;99.90;;;;;;4919133;29;20047;-68
2022/10/29 10:54:55;;;;;;;39.72;20.23;;;18.30;99.90;;;;;;4937200;29;20048;-68
2022/10/29 10:57:25;;;;;;;36.97;18.70;;;18.40;99.90;;;;;;4932930;29;20051;-68
2022/10/29 11:00:15;;;;;;;33.63;19.23;;;18.40;99.90;;;;;;4931562;29;20074;-67
2022/10/29 11:03:03;;;;;;;31.08;18.45;;;18.40;99.90;;;;;;4932452;29;20131;-68
2022/10/29 11:05:53;;;;;;;35.80;18.58;;;18.50;99.90;;;;;;4924448;29;20041;-68
2022/10/29 11:08:39;;;;;;;34.60;18.17;;;18.50;99.90;;;;;;4914171;29;20513;-67
2022/10/29 11:11:27;;;;;;;35.67;18.02;;;18.50;99.90;;;;;;4923870;29;20044;-67
2022/10/29 11:13:58;;;;;;;35.38;18.15;;;18.50;99.90;;;;;;4912223;29;20059;-67
2022/10/29 11:16:32;;;;;;;40.17;18.00;;;18.60;99.90;;;;;;4929508;29;20059;-67
2022/10/29 11:19:11;;;;;;;34.92;18.83;;;18.70;99.90;;;;;;4925497;29;20083;-70
2022/10/29 11:22:11;;;;;;;34.95;18.25;;;18.70;99.90;;;;;;4930221;29;20082;-67
2022/10/29 11:24:42;;;;;;;39.90;18.33;;;18.80;99.90;;;;;;4931060;29;20095;-67
2022/10/29 11:27:10;;;;;;;;;;;18.80;99.90;;;;;;4936826;29;20035;-67
2022/10/29 11:30:00;;;;;;;32.50;17.17;;;18.80;99.90;;;;;;4936646;29;20013;-68
2022/10/29 11:33:06;;;;;;;34.45;18.10;;;18.80;99.90;;;;;;4924447;29;20530;-68
2022/10/29 11:35:44;;;;;;;32.92;17.50;;;18.80;99.90;;;;;;4913738;29;20052;-68
2022/10/29 11:38:22;;;;;;;31.25;17.73;;;18.80;99.90;;;;;;4932049;29;20055;-68
2022/10/29 11:40:50;;;;;;;32.75;17.90;;;18.80;99.90;;;;;;4918532;29;20482;-68
2022/10/29 11:43:19;;;;;;;38.38;17.58;;;18.90;99.90;;;;;;4928731;29;20040;-68
2022/10/29 11:45:56;;;;;;;31.42;17.48;;;18.90;99.90;;;;;;4919123;29;20043;-68
2022/10/29 11:48:32;;;;;;;29.30;17.48;;;18.90;99.90;;;;;;4933458;29;20078;-67
2022/10/29 11:51:09;;;;;;;34.35;17.45;;;18.90;99.90;;;;;;4935506;29;20075;-67
2022/10/29 11:53:52;;;;;;;39.80;17.88;;;19.00;99.90;;;;;;4936078;29;20039;-67
2022/10/29 11:56:29;;;;;;;32.83;18.50;;;19.10;99.90;;;;;;4922899;29;20094;-66
2022/10/29 11:59:03;;;;;;;37.97;18.35;;;19.20;99.90;;;;;;4932303;29;20067;-66
2022/10/29 12:01:58;;;;;;;32.33;18.05;;;19.10;99.90;;;;;;4918580;29;20414;-66
2022/10/29 12:04:47;;;;;;;36.28;18.83;;;19.10;99.90;;;;;;4847538;29;20062;-66
2022/10/29 12:07:40;;;;;;;36.50;17.88;;;19.10;99.90;;;;;;4928549;29;20043;-66
2022/10/29 12:10:47;;;;;;;32.10;18.38;;;19.00;99.90;;;;;;4919456;29;20076;-66
2022/10/29 12:13:20;;;;;;;34.13;18.30;;;19.00;99.90;;;;;;4909423;29;20066;-66
2022/10/29 12:16:16;;;;;;;36.47;17.77;;;19.10;99.90;;;;;;4931995;29;20040;-66
2022/10/29 12:19:09;;;;;;;35.70;17.85;;;19.20;99.90;;;;;;4916738;29;20044;-66
2022/10/29 12:21:40;;;;;;;41.75;20.08;;;19.30;99.90;;;;;;4904586;29;20048;-66
2022/10/29 12:24:11;;;;;;;36.78;18.55;;;19.50;99.90;;;;;;4928506;29;20075;-67
2022/10/29 12:26:59;;;;;;;36.03;18.02;;;19.60;99.90;;;;;;4935016;29;20039;-67
2022/10/29 12:37:31;;;;;;;34.28;18.55;;;19.50;99.90;;;;;;5678910;23;20051;-67
2022/10/29 12:45:26;;;;;;;32.20;18.20;;;19.50;99.90;;;;;;5370610;23;20122;-66
2022/10/29 12:48:15;;;;;;;34.60;18.77;;;19.50;99.90;;;;;;4936907;29;20071;-64
2022/10/29 12:50:53;;;;;;;39.63;18.88;;;19.50;99.90;;;;;;4927844;29;20481;-64
2022/10/29 12:53:54;;;;;;;35.72;17.65;;;19.60;99.90;;;;;;4933579;29;20054;-65
2022/10/29 12:56:21;;;;;;;29.10;17.40;;;19.60;99.90;;;;;;4934399;29;20134;-66
2022/10/29 12:58:51;;;;;;;35.03;18.38;;;19.80;99.90;;;;;;4968361;23;20043;-69
2022/10/29 13:01:26;;;;;;;32.30;17.80;;;19.80;99.90;;;;;;4947002;29;20520;-70
2022/10/29 13:03:54;;;;;;;33.90;18.90;;;19.90;99.90;;;;;;4937770;29;20044;-69